Terminal Aerodrome Forecast
Issued by NWS St Louis, MO

Home | Current Version | Previous Version | Text Only | Print | Product List | Glossary On
Versions: 1 2 3 4 5 6 7 8 9 10 11 12 13 14 15 16 17 18 19 20 21 22 23 24 25 26 27 28
401
FTUS43 KLSX 150911 AAA
TAFSTL
TAF AMD
KSTL 150911Z 1509/1612 21011KT 1 1/2SM -SN BR OVC015
     FM151200 27011KT P6SM -SN OVC020
     FM151400 30015G24KT P6SM OVC020
     FM151600 30016G24KT P6SM -SN OVC025=

USA.gov is the U.S. government's official web portal to all federal, state and local government web resources and services.